Time;durP1;ratioP1;P1;durP2;ratioP2;P2;SDS_P1;SDS_P2;PMS_P1;PMS_P2;Temp;Humidity;BMP_temperature;BMP_pressure;BME280_temperature;BME280_humidity;BME280_pressure;Samples;Min_cycle;Max_cycle;Signal;HPM_P1;HPM_P2
2022/07/19 00:01:35;;;;;;;12.88;3.28;;;;;;;21.61;55.73;101345.56;5095526;28;20106;-78
2022/07/19 00:04:00;;;;;;;13.93;4.20;;;;;;;21.63;55.19;101347.09;5095859;28;20501;-79
2022/07/19 00:06:26;;;;;;;10.15;4.28;;;;;;;21.58;54.83;101338.56;5095411;28;20039;-79
2022/07/19 00:08:51;;;;;;;8.93;3.33;;;;;;;21.51;54.69;101337.56;5095651;28;20051;-79
2022/07/19 00:11:17;;;;;;;8.05;3.50;;;;;;;21.47;54.94;101341.69;5101859;28;20530;-79
2022/07/19 00:13:42;;;;;;;6.00;3.28;;;;;;;21.51;54.53;101333.97;5097100;28;20462;-79
2022/07/19 00:16:08;;;;;;;10.27;2.67;;;;;;;21.51;54.41;101340.31;5091651;28;20027;-79
2022/07/19 00:18:33;;;;;;;14.30;3.35;;;;;;;21.43;54.48;101334.03;5078751;28;20028;-79
2022/07/19 00:20:59;;;;;;;12.25;3.33;;;;;;;21.46;54.01;101329.06;5096750;28;20024;-79
2022/07/19 00:23:24;;;;;;;8.95;2.85;;;;;;;21.53;53.91;101340.09;5095139;28;20035;-79
2022/07/19 00:25:50;;;;;;;5.47;3.20;;;;;;;21.52;53.95;101332.94;5095173;28;20019;-79
2022/07/19 00:28:15;;;;;;;6.40;3.38;;;;;;;21.43;53.89;101332.16;5095105;28;20114;-79
2022/07/19 00:30:41;;;;;;;8.48;3.40;;;;;;;21.41;54.18;101336.91;5095157;28;20039;-80
2022/07/19 00:33:08;;;;;;;9.07;4.60;;;;;;;21.45;54.38;101335.53;5095485;28;20032;-79
2022/07/19 00:35:38;;;;;;;6.57;3.28;;;;;;;21.48;54.68;101337.91;5095384;28;20030;-80
2022/07/19 00:38:09;;;;;;;9.40;3.53;;;;;;;21.41;54.67;101330.59;5095404;28;20035;-79
2022/07/19 00:40:35;;;;;;;6.47;3.28;;;;;;;21.37;55.34;101341.06;5095111;28;20489;-79
2022/07/19 00:43:01;;;;;;;21.70;3.55;;;;;;;21.23;55.66;101333.56;5095036;28;20035;-79
2022/07/19 00:45:27;;;;;;;16.90;3.30;;;;;;;21.22;55.73;101331.03;5094900;28;20020;-79
2022/07/19 00:47:52;;;;;;;9.60;3.10;;;;;;;21.29;55.55;101338.34;5094676;28;20036;-80
2022/07/19 00:50:19;;;;;;;18.23;3.90;;;;;;;21.30;55.42;101337.31;5095010;28;20512;-78
2022/07/19 00:52:48;;;;;;;6.47;2.97;;;;;;;21.26;55.49;101335.97;5094857;28;20024;-79
2022/07/19 00:55:16;;;;;;;19.33;3.42;;;;;;;21.17;55.31;101324.19;5094748;28;20110;-78
2022/07/19 00:57:42;;;;;;;16.20;3.97;;;;;;;21.07;55.27;101315.31;5094188;28;20103;-78
2022/07/19 01:00:09;;;;;;;5.50;2.75;;;;;;;21.06;55.50;101316.34;5094361;28;20473;-79
2022/07/19 01:02:36;;;;;;;17.65;3.55;;;;;;;20.98;56.13;101318.22;5094379;28;20063;-78
2022/07/19 01:05:02;;;;;;;11.05;4.63;;;;;;;21.00;56.65;101330.72;5094301;28;20024;-78
2022/07/19 01:07:28;;;;;;;9.07;3.88;;;;;;;21.08;55.97;101327.09;5093000;28;20055;-79
2022/07/19 01:09:53;;;;;;;13.52;4.63;;;;;;;21.05;55.96;101328.31;5094483;28;20056;-78
2022/07/19 01:12:22;;;;;;;11.98;3.78;;;;;;;21.04;55.92;101323.84;5094306;28;20469;-78
2022/07/19 01:14:48;;;;;;;12.68;3.92;;;;;;;21.11;55.45;101318.56;5093691;28;20052;-78
2022/07/19 01:17:13;;;;;;;17.70;5.05;;;;;;;21.07;55.50;101314.44;5094217;28;20044;-78
2022/07/19 01:19:39;;;;;;;19.25;5.65;;;;;;;21.06;55.62;101329.16;5094039;28;20032;-78
2022/07/19 01:22:04;;;;;;;18.67;6.85;;;;;;;20.99;55.96;101317.22;5096122;28;20028;-78
2022/07/19 01:24:30;;;;;;;17.88;5.40;;;;;;;20.99;56.14;101325.41;5114053;28;20080;-78
2022/07/19 01:26:55;;;;;;;24.60;5.13;;;;;;;20.87;56.47;101310.41;5080538;28;20092;-81
2022/07/19 01:29:21;;;;;;;12.00;6.03;;;;;;;20.90;56.47;101310.06;5115321;28;20085;-81
2022/07/19 01:31:46;;;;;;;12.60;5.47;;;;;;;20.90;56.43;101318.25;5096453;28;20032;-81
2022/07/19 01:34:12;;;;;;;42.17;6.82;;;;;;;20.93;56.40;101320.66;5096090;28;20012;-81
2022/07/19 01:36:37;;;;;;;17.23;5.65;;;;;;;20.87;56.22;101307.69;5060590;28;20115;-81
2022/07/19 01:39:03;;;;;;;32.72;4.70;;;;;;;20.89;55.86;101322.88;5077072;28;20032;-81
2022/07/19 01:41:28;;;;;;;21.50;5.53;;;;;;;20.86;55.84;101317.75;5077350;28;20802;-81
2022/07/19 01:43:53;;;;;;;10.55;4.53;;;;;;;20.80;55.71;101310.25;5076690;28;20157;-81
2022/07/19 01:46:19;;;;;;;12.80;4.00;;;;;;;20.82;55.58;101315.56;5094840;28;20494;-80
2022/07/19 01:48:45;;;;;;;9.18;4.47;;;;;;;20.82;54.96;101315.56;5077633;28;20483;-82
2022/07/19 01:51:10;;;;;;;15.10;5.68;;;;;;;20.81;55.22;101319.31;5095496;28;20019;-81
2022/07/19 01:53:37;;;;;;;13.07;5.30;;;;;;;20.70;55.20;101314.22;5095092;28;20102;-82
2022/07/19 01:56:04;;;;;;;22.30;4.85;;;;;;;20.62;55.46;101302.25;5061184;28;20423;-81
2022/07/19 01:58:30;;;;;;;23.02;4.97;;;;;;;20.66;55.38;101312.84;5059955;28;20024;-82
2022/07/19 02:00:55;;;;;;;12.02;5.10;;;;;;;20.68;55.25;101305.31;5076289;28;20489;-81
2022/07/19 02:03:21;;;;;;;16.25;4.63;;;;;;;20.73;55.34;101302.94;5076209;28;20020;-81
2022/07/19 02:05:46;;;;;;;22.70;6.22;;;;;;;20.77;55.13;101307.00;5094609;28;20103;-82
2022/07/19 02:08:13;;;;;;;19.88;6.25;;;;;;;20.82;55.15;101307.34;5095222;28;20032;-81
2022/07/19 02:10:39;;;;;;;23.77;5.18;;;;;;;20.85;55.10;101315.22;5076437;28;20031;-81
2022/07/19 02:13:05;;;;;;;26.63;4.88;;;;;;;20.88;54.06;101306.66;5077055;28;20023;-81
2022/07/19 02:15:30;;;;;;;12.50;4.55;;;;;;;20.71;54.86;101299.50;5094631;28;20457;-82
2022/07/19 02:17:56;;;;;;;17.77;4.57;;;;;;;20.82;54.50;101310.09;5094487;28;20408;-81
2022/07/19 02:20:22;;;;;;;16.08;4.75;;;;;;;20.79;54.38;101303.09;5094389;28;20405;-81
2022/07/19 02:22:47;;;;;;;12.10;4.28;;;;;;;20.83;54.43;101309.03;5094235;28;20455;-82
2022/07/19 02:25:13;;;;;;;21.48;4.53;;;;;;;20.91;54.32;101306.31;5094989;28;20028;-82
2022/07/19 02:27:39;;;;;;;19.80;4.97;;;;;;;20.89;54.57;101314.66;5076160;28;20063;-81
2022/07/19 02:30:05;;;;;;;9.93;4.80;;;;;;;20.76;54.89;101314.38;5094040;28;20047;-81
2022/07/19 02:32:34;;;;;;;25.58;5.30;;;;;;;20.76;54.90;101308.06;5075928;28;20155;-81
2022/07/19 02:34:59;;;;;;;6.03;3.20;;;;;;;20.71;54.94;101305.81;5060311;28;20034;-81
2022/07/19 02:37:25;;;;;;;12.90;5.43;;;;;;;20.75;54.74;101300.88;5081531;28;20023;-81
2022/07/19 02:39:50;;;;;;;16.38;5.38;;;;;;;20.73;54.83;101309.25;5114250;28;20114;-82
2022/07/19 02:42:16;;;;;;;9.15;4.28;;;;;;;20.78;55.09;101322.41;5114771;28;20024;-82
2022/07/19 02:44:42;;;;;;;11.52;5.47;;;;;;;20.81;55.15;101316.56;5079652;28;20030;-81
2022/07/19 02:47:07;;;;;;;21.10;4.53;;;;;;;20.71;55.53;101321.38;5060825;28;20067;-77
2022/07/19 02:49:33;;;;;;;15.38;4.65;;;;;;;20.71;55.44;101311.28;5083127;28;20555;-79
2022/07/19 02:51:59;;;;;;;15.25;4.60;;;;;;;20.75;55.40;101314.53;5091535;28;20050;-79
2022/07/19 02:54:25;;;;;;;14.77;4.88;;;;;;;20.72;55.84;101317.63;5077920;28;20028;-79
2022/07/19 02:56:50;;;;;;;10.27;4.30;;;;;;;20.67;55.95;101329.09;5073336;28;20122;-78
2022/07/19 02:59:16;;;;;;;18.52;4.85;;;;;;;20.66;56.14;101329.25;5092222;28;20028;-79
2022/07/19 03:01:41;;;;;;;20.45;5.38;;;;;;;20.63;55.70;101327.72;5091920;28;20528;-79
2022/07/19 03:04:07;;;;;;;10.82;4.78;;;;;;;20.58;56.18;101327.38;5091519;28;20093;-79
2022/07/19 03:06:32;;;;;;;14.93;4.80;;;;;;;20.55;56.49;101328.56;5091638;28;20455;-79
2022/07/19 03:08:58;;;;;;;19.55;5.68;;;;;;;20.58;56.75;101321.91;5091770;28;20026;-79
2022/07/19 03:11:23;;;;;;;19.83;5.68;;;;;;;20.50;56.92;101335.59;5091986;28;20054;-79
2022/07/19 03:13:49;;;;;;;14.68;4.97;;;;;;;20.52;56.25;101326.19;5056654;28;20359;-80
2022/07/19 03:16:15;;;;;;;23.20;5.03;;;;;;;20.58;56.12;101332.84;5091915;28;20123;-79
2022/07/19 03:18:41;;;;;;;13.25;4.88;;;;;;;20.53;55.99;101322.44;5091751;28;20035;-78
2022/07/19 03:21:07;;;;;;;29.92;4.88;;;;;;;20.52;56.16;101322.59;5075681;28;20029;-79
2022/07/19 03:23:34;;;;;;;18.27;4.90;;;;;;;20.55;56.33;101334.03;5095386;28;20024;-78
2022/07/19 03:26:00;;;;;;;21.48;5.80;;;;;;;20.53;56.38;101325.16;5095918;28;20472;-78
2022/07/19 03:28:26;;;;;;;13.10;4.45;;;;;;;20.49;56.64;101337.47;5077936;28;20123;-80
2022/07/19 03:30:53;;;;;;;25.95;5.50;;;;;;;20.45;56.82;101329.78;5095650;28;20032;-78
2022/07/19 03:33:18;;;;;;;13.38;5.07;;;;;;;20.51;56.46;101331.84;5077659;28;20433;-78
2022/07/19 03:35:45;;;;;;;14.15;5.22;;;;;;;20.38;56.83;101323.28;5077560;28;20024;-78
2022/07/19 03:38:12;;;;;;;26.60;5.18;;;;;;;20.46;56.70;101324.13;5095822;28;20042;-78
2022/07/19 03:40:38;;;;;;;15.25;5.00;;;;;;;20.40;57.06;101329.44;5077638;28;20062;-78
2022/07/19 03:43:07;;;;;;;16.45;6.05;;;;;;;20.38;57.15;101329.63;5077561;28;20054;-80
2022/07/19 03:45:33;;;;;;;13.77;5.05;;;;;;;20.38;57.15;101324.16;5095495;28;20023;-78
2022/07/19 03:47:58;;;;;;;16.88;6.85;;;;;;;20.40;57.29;101329.44;5095611;28;20144;-79
2022/07/19 03:50:24;;;;;;;20.80;6.68;;;;;;;20.53;56.87;101336.09;5077452;28;20111;-78
2022/07/19 03:52:49;;;;;;;25.83;6.15;;;;;;;20.46;57.15;101329.59;5077118;28;20023;-80
2022/07/19 03:55:15;;;;;;;17.85;5.85;;;;;;;20.53;57.01;101335.25;5057806;28;20401;-77
2022/07/19 03:57:40;;;;;;;20.80;6.00;;;;;;;20.63;57.01;101333.19;5099960;28;20027;-79
2022/07/19 04:00:06;;;;;;;29.58;6.75;;;;;;;20.62;56.89;101335.06;5104042;28;20484;-79
2022/07/19 04:02:32;;;;;;;26.35;7.80;;;;;;;20.51;57.37;101334.56;5095267;28;20086;-79
2022/07/19 04:04:59;;;;;;;35.58;7.25;;;;;;;20.54;57.45;101343.28;5091652;28;20489;-79
2022/07/19 04:07:25;;;;;;;21.40;6.13;;;;;;;20.41;57.64;101332.00;5077435;28;20046;-78
2022/07/19 04:09:51;;;;;;;21.10;5.88;;;;;;;20.42;57.88;101325.53;5094976;28;20020;-78
2022/07/19 04:12:16;;;;;;;27.40;6.57;;;;;;;20.50;58.07;101332.84;5094930;28;20028;-79
2022/07/19 04:14:42;;;;;;;21.00;7.70;;;;;;;20.46;58.00;101332.34;5076255;28;20516;-78
2022/07/19 04:17:08;;;;;;;21.35;7.80;;;;;;;20.58;58.17;101339.16;5079158;28;20027;-79
2022/07/19 04:19:35;;;;;;;29.13;8.30;;;;;;;20.56;57.99;101340.38;5093559;28;20039;-79
2022/07/19 04:22:01;;;;;;;27.88;7.57;;;;;;;20.59;58.12;101335.41;5093675;28;20497;-79
2022/07/19 04:24:26;;;;;;;36.25;10.00;;;;;;;20.65;58.09;101331.13;5093410;28;20085;-79
2022/07/19 04:26:52;;;;;;;28.67;8.02;;;;;;;20.77;57.91;101348.03;5093011;28;20461;-79
2022/07/19 04:29:17;;;;;;;40.42;9.63;;;;;;;20.78;57.83;101341.53;5092980;28;20122;-81
2022/07/19 04:31:44;;;;;;;33.47;7.80;;;;;;;20.89;57.58;101332.97;5093665;28;20115;-80
2022/07/19 04:34:09;;;;;;;23.13;8.18;;;;;;;21.03;57.14;101337.72;5096236;28;20473;-80
2022/07/19 04:36:35;;;;;;;25.75;7.60;;;;;;;21.10;57.16;101344.22;5096768;28;20056;-83
2022/07/19 04:39:01;;;;;;;27.60;9.10;;;;;;;21.24;56.86;101345.38;5096618;28;20043;-83
2022/07/19 04:41:26;;;;;;;30.58;7.93;;;;;;;21.18;56.77;101325.06;5094808;28;20414;-82
2022/07/19 04:43:52;;;;;;;26.60;8.35;;;;;;;21.22;56.77;101325.56;5096296;28;20478;-83
2022/07/19 04:46:18;;;;;;;47.05;9.73;;;;;;;21.40;56.39;101339.84;5095719;28;20047;-83
2022/07/19 04:48:44;;;;;;;46.60;9.68;;;;;;;21.39;56.44;101333.53;5095426;28;20023;-82
2022/07/19 04:51:10;;;;;;;71.63;13.02;;;;;;;21.54;56.35;101336.34;5094130;28;20024;-80
2022/07/19 04:53:35;;;;;;;59.88;13.00;;;;;;;21.57;56.28;101349.69;5096031;28;20478;-81
2022/07/19 04:56:01;;;;;;;52.33;10.55;;;;;;;21.74;55.96;101342.25;5095246;28;20055;-82
2022/07/19 04:58:26;;;;;;;32.33;8.57;;;;;;;21.79;55.73;101350.78;5093873;28;20078;-83
2022/07/19 05:00:52;;;;;;;29.73;8.32;;;;;;;21.81;55.73;101351.44;5095365;28;20042;-82
2022/07/19 05:03:17;;;;;;;30.10;7.38;;;;;;;21.83;55.56;101341.16;5098417;28;20512;-84
2022/07/19 05:06:01;;;;;;;41.65;8.77;;;;;;;21.93;55.54;101339.06;5106835;28;20020;-84
2022/07/19 05:08:26;;;;;;;31.52;6.28;;;;;;;22.07;54.67;101358.34;5097729;28;20049;-85
2022/07/19 05:10:52;;;;;;;20.80;4.97;;;;;;;22.20;53.74;101346.75;5069501;28;20032;-84
2022/07/19 05:13:18;;;;;;;26.83;6.53;;;;;;;22.28;53.28;101340.38;5057299;28;20044;-85
2022/07/19 05:15:43;;;;;;;17.08;4.75;;;;;;;22.47;52.94;101350.84;5052459;28;20037;-86
2022/07/19 05:18:10;;;;;;;19.58;5.55;;;;;;;22.62;51.69;101347.09;5034964;28;20025;-84
2022/07/19 05:20:36;;;;;;;23.67;4.65;;;;;;;22.78;51.33;101341.47;5034072;28;20026;-85
2022/07/19 05:23:01;;;;;;;11.80;2.20;;;;;;;22.98;49.45;101346.41;5033857;28;20194;-85
2022/07/19 05:25:27;;;;;;;9.25;1.63;;;;;;;23.17;48.01;101348.59;5035276;28;20519;-85
2022/07/19 05:27:52;;;;;;;12.82;2.67;;;;;;;23.28;47.50;101359.09;5034235;28;20046;-87
2022/07/19 05:30:18;;;;;;;11.75;2.22;;;;;;;23.38;46.56;101353.34;5034053;28;20064;-85
2022/07/19 05:32:43;;;;;;;6.18;2.30;;;;;;;23.49;46.73;101350.13;5034710;28;20022;-85
2022/07/19 05:35:09;;;;;;;6.45;2.25;;;;;;;23.66;46.03;101355.22;5035350;28;20104;-85
2022/07/19 05:37:35;;;;;;;10.40;3.08;;;;;;;23.81;45.66;101347.81;5050449;28;20108;-82
2022/07/19 05:40:00;;;;;;;4.95;1.98;;;;;;;23.97;44.88;101346.72;5033985;28;20131;-81
2022/07/19 05:42:26;;;;;;;24.45;4.80;;;;;;;24.13;44.29;101348.38;5033986;28;20033;-82
2022/07/19 05:44:51;;;;;;;17.52;3.30;;;;;;;24.22;43.86;101341.72;5032934;28;20021;-81
2022/07/19 05:47:17;;;;;;;16.25;7.28;;;;;;;24.42;43.49;101340.00;5049658;28;20037;-86
2022/07/19 05:49:43;;;;;;;8.57;2.38;;;;;;;24.60;43.06;101339.53;5033566;28;20468;-83
2022/07/19 05:52:10;;;;;;;13.38;2.47;;;;;;;24.69;43.07;101341.09;5034221;28;20025;-81
2022/07/19 05:54:35;;;;;;;10.00;2.58;;;;;;;24.74;42.93;101333.94;5032825;28;20053;-82
2022/07/19 05:57:01;;;;;;;5.78;2.67;;;;;;;24.82;41.80;101339.34;5034488;28;20537;-83
2022/07/19 05:59:26;;;;;;;7.35;1.73;;;;;;;24.89;40.12;101342.97;5043602;28;20029;-83
2022/07/19 06:01:51;;;;;;;10.43;2.42;;;;;;;24.94;38.98;101336.88;5053787;28;20506;-81
2022/07/19 06:04:17;;;;;;;8.07;2.30;;;;;;;24.90;39.52;101333.66;5053015;28;20047;-83
2022/07/19 06:06:42;;;;;;;16.67;2.78;;;;;;;24.89;39.27;101323.69;5053147;28;20552;-84
2022/07/19 06:09:11;;;;;;;13.43;2.30;;;;;;;25.03;38.43;101338.41;5052269;28;20082;-83
2022/07/19 06:11:40;;;;;;;20.13;3.10;;;;;;;25.04;37.76;101328.25;5052362;28;20112;-82
2022/07/19 06:14:08;;;;;;;6.10;2.72;;;;;;;25.15;38.83;101342.28;5062685;28;20044;-82
2022/07/19 06:16:38;;;;;;;6.15;1.60;;;;;;;25.27;37.39;101340.66;5043576;28;20484;-82
2022/07/19 06:19:04;;;;;;;5.45;1.73;;;;;;;25.22;37.20;101331.31;5094452;28;20066;-83
2022/07/19 06:21:30;;;;;;;7.93;1.90;;;;;;;25.23;37.14;101338.50;5111486;28;20087;-82
2022/07/19 06:23:56;;;;;;;16.27;2.60;;;;;;;25.31;38.54;101341.13;5080409;28;20497;-83
2022/07/19 06:26:25;;;;;;;2.42;2.03;;;;;;;25.25;38.14;101333.69;5076250;28;20089;-77
2022/07/19 06:28:50;;;;;;;14.40;3.30;;;;;;;25.24;39.20;101340.22;5092169;28;20031;-78
2022/07/19 06:31:19;;;;;;;13.15;3.10;;;;;;;25.28;39.90;101339.63;5102178;28;20036;-78
2022/07/19 06:33:46;;;;;;;9.90;3.05;;;;;;;25.31;39.74;101332.84;5089472;28;20035;-84
2022/07/19 06:36:13;;;;;;;6.82;3.05;;;;;;;25.35;39.01;101321.22;5113378;28;20019;-79
2022/07/19 06:38:38;;;;;;;10.75;2.70;;;;;;;25.44;38.94;101313.66;5094397;28;20027;-81
2022/07/19 06:41:05;;;;;;;6.55;2.00;;;;;;;25.49;37.62;101326.81;5113578;28;20058;-83
2022/07/19 06:43:30;;;;;;;12.77;2.03;;;;;;;25.50;35.66;101323.03;5096385;28;20023;-86
2022/07/19 06:45:56;;;;;;;2.78;1.40;;;;;;;25.59;35.09;101333.66;5095924;28;20050;-86
2022/07/19 06:48:21;;;;;;;2.20;1.23;;;;;;;25.55;35.35;101332.38;5096387;28;20044;-82
2022/07/19 06:50:47;;;;;;;3.55;1.58;;;;;;;25.58;35.92;101333.84;5095776;28;20024;-83
2022/07/19 06:53:13;;;;;;;10.00;1.95;;;;;;;25.55;36.89;101315.84;5114162;28;20020;-82
2022/07/19 06:55:39;;;;;;;7.90;1.80;;;;;;;25.67;37.62;101333.47;5112690;28;20026;-82
2022/07/19 06:58:04;;;;;;;30.33;7.00;;;;;;;25.73;38.15;101343.69;5112795;28;20080;-79
2022/07/19 07:00:30;;;;;;;12.77;2.90;;;;;;;25.80;38.54;101336.28;5094253;28;20028;-82
2022/07/19 07:02:55;;;;;;;16.92;2.80;;;;;;;25.91;37.64;101337.59;5078030;28;20024;-81
2022/07/19 07:05:21;;;;;;;13.23;1.73;;;;;;;25.97;35.24;101329.34;5075336;28;20085;-80
2022/07/19 07:07:47;;;;;;;9.40;2.38;;;;;;;25.90;35.15;101314.66;5072922;28;20029;-82
2022/07/19 07:10:13;;;;;;;4.35;1.67;;;;;;;26.05;35.29;101335.72;5073863;28;20506;-89
2022/07/19 07:12:40;;;;;;;7.20;1.52;;;;;;;26.15;35.05;101352.69;5075585;28;20031;-90
2022/07/19 07:15:06;;;;;;;10.63;2.55;;;;;;;26.16;34.66;101341.50;5114092;28;20469;-87
2022/07/19 07:17:35;;;;;;;11.90;2.35;;;;;;;26.29;35.07;101347.03;5115352;28;20055;-85
2022/07/19 07:20:02;;;;;;;8.85;1.95;;;;;;;26.31;34.88;101352.34;5114719;28;20116;-84
2022/07/19 07:22:27;;;;;;;11.75;2.10;;;;;;;26.33;33.97;101341.94;5097056;28;20024;-91
2022/07/19 07:24:54;;;;;;;7.57;2.85;;;;;;;26.37;33.74;101337.69;5096210;28;20012;-89
2022/07/19 07:27:20;;;;;;;10.73;3.28;;;;;;;26.45;34.63;101351.31;5115758;28;20102;-85
2022/07/19 07:29:45;;;;;;;13.48;2.38;;;;;;;26.53;34.96;101356.63;5114391;28;20062;-86
2022/07/19 07:32:11;;;;;;;13.00;2.50;;;;;;;26.54;34.48;101344.53;5118755;28;20032;-86
2022/07/19 07:34:36;;;;;;;9.88;1.80;;;;;;;26.60;33.97;101338.16;5103886;28;20039;-89
2022/07/19 07:37:02;;;;;;;7.80;1.63;;;;;;;26.52;33.75;101336.44;5099095;28;20034;-89
2022/07/19 07:39:27;;;;;;;6.32;1.17;;;;;;;26.57;32.58;101344.09;5095811;28;20027;-85
2022/07/19 07:41:53;;;;;;;8.43;1.80;;;;;;;26.50;33.13;101335.81;5114590;28;20041;-81
2022/07/19 07:44:18;;;;;;;14.77;1.83;;;;;;;26.65;33.59;101345.78;5094523;28;20028;-81
2022/07/19 07:46:43;;;;;;;13.63;1.67;;;;;;;26.57;33.42;101329.44;5102105;28;20045;-83
2022/07/19 07:49:09;;;;;;;6.50;1.95;;;;;;;26.60;34.82;101340.06;5096080;28;20389;-83
2022/07/19 07:51:37;;;;;;;5.50;1.98;;;;;;;26.65;32.78;101341.13;5076614;28;20028;-82
2022/07/19 07:54:06;;;;;;;14.50;2.42;;;;;;;26.69;34.66;101341.53;5095853;28;20103;-82
2022/07/19 07:56:35;;;;;;;11.07;2.25;;;;;;;26.69;35.62;101331.34;5094247;28;20028;-83
2022/07/19 07:59:00;;;;;;;5.45;1.83;;;;;;;26.68;35.17;101332.41;5093998;28;20571;-83
2022/07/19 08:01:26;;;;;;;16.95;1.88;;;;;;;26.74;35.70;101350.88;5093734;28;20024;-84
2022/07/19 08:03:51;;;;;;;6.85;1.83;;;;;;;26.73;36.07;101320.72;5092645;28;20028;-83
2022/07/19 08:06:17;;;;;;;17.83;3.40;;;;;;;26.77;35.30;101330.28;5092966;28;20069;-84
2022/07/19 08:08:44;;;;;;;44.08;3.42;;;;;;;26.89;34.90;101340.50;5097200;28;20032;-93
2022/07/19 08:11:10;;;;;;;5.85;1.60;;;;;;;26.80;35.82;101319.69;5063521;28;20386;-89
2022/07/19 08:13:37;;;;;;;16.60;2.00;;;;;;;26.86;35.58;101315.22;5114366;28;20156;-93
2022/07/19 08:16:03;;;;;;;26.52;2.20;;;;;;;27.05;36.84;101350.25;5083318;28;20043;-91
2022/07/19 08:18:30;;;;;;;8.15;2.00;;;;;;;27.10;36.56;101347.69;5094259;28;20040;-87
2022/07/19 08:20:55;;;;;;;22.20;2.33;;;;;;;27.15;36.50;101330.47;5079266;28;20032;-91
2022/07/19 08:23:21;;;;;;;9.63;2.08;;;;;;;27.20;36.67;101333.44;5077519;28;20628;-88
2022/07/19 08:25:46;;;;;;;45.60;3.45;;;;;;;27.16;36.04;101316.44;5082674;28;20111;-88
2022/07/19 08:28:11;;;;;;;17.15;2.10;;;;;;;27.27;35.80;101342.56;5099323;28;20092;-80
2022/07/19 08:30:37;;;;;;;16.80;2.20;;;;;;;27.17;35.76;101339.38;5103359;28;20089;-80
2022/07/19 08:33:06;;;;;;;38.22;4.28;;;;;;;27.13;36.03;101350.00;5098406;28;20024;-83
2022/07/19 08:35:32;;;;;;;21.92;2.40;;;;;;;27.03;35.85;101338.56;5098013;28;20033;-80
2022/07/19 08:37:58;;;;;;;13.45;2.20;;;;;;;27.21;36.17;101341.50;5093302;28;20043;-79
2022/07/19 08:40:23;;;;;;;8.73;2.00;;;;;;;27.18;36.11;101343.84;5098585;28;20028;-80
2022/07/19 08:43:03;;;;;;;12.65;2.22;;;;;;;27.23;36.23;101333.00;5103070;28;20056;-82
2022/07/19 08:45:30;;;;;;;8.75;2.90;;;;;;;26.87;36.88;101316.94;5115825;28;20088;-82
2022/07/19 08:47:57;;;;;;;81.45;6.22;;;;;;;27.04;37.14;101324.53;5115060;28;20534;-80
2022/07/19 08:50:25;;;;;;;39.03;2.65;;;;;;;27.15;37.32;101330.47;5114607;28;20020;-81
2022/07/19 08:52:52;;;;;;;36.65;3.13;;;;;;;27.25;37.23;101333.59;5116784;28;20027;-83
2022/07/19 08:55:18;;;;;;;8.95;2.00;;;;;;;27.32;37.45;101328.94;5116679;28;20439;-87
2022/07/19 08:58:06;;;;;;;10.35;2.20;;;;;;;27.36;37.55;101331.06;5116567;28;20061;-81
2022/07/19 09:00:32;;;;;;;5.47;1.83;;;;;;;27.42;36.50;101332.09;5097904;28;20066;-86
2022/07/19 09:03:01;;;;;;;22.77;3.25;;;;;;;27.26;37.00;101335.31;5096462;28;20370;-86
2022/07/19 09:05:28;;;;;;;16.60;1.80;;;;;;;27.29;37.17;101332.97;5099540;28;20024;-80
2022/07/19 09:08:05;;;;;;;13.98;2.55;;;;;;;27.39;37.61;101338.06;5115100;28;20027;-81
2022/07/19 09:10:32;;;;;;;5.10;1.52;;;;;;;27.40;38.10;101339.75;5095953;28;20114;-81
2022/07/19 09:13:12;;;;;;;28.30;2.30;;;;;;;27.35;37.37;101325.72;5115151;28;20032;-81
2022/07/19 09:15:40;;;;;;;23.88;1.92;;;;;;;27.35;37.98;101331.25;5114996;28;20048;-82
2022/07/19 09:18:13;;;;;;;5.95;1.77;;;;;;;27.25;38.74;101328.09;5101920;28;20050;-81
2022/07/19 09:20:39;;;;;;;4.38;1.67;;;;;;;27.29;38.93;101319.16;5096559;28;20020;-82
2022/07/19 09:23:05;;;;;;;8.13;6.40;;;;;;;27.40;38.74;101328.72;5093767;28;20465;-81
2022/07/19 09:25:40;;;;;;;4.35;1.83;;;;;;;27.34;38.08;101321.25;5078943;28;20040;-81
2022/07/19 09:28:06;;;;;;;18.85;2.42;;;;;;;27.33;38.87;101327.88;5076587;28;20032;-81
2022/07/19 09:30:33;;;;;;;15.52;2.95;;;;;;;27.50;38.57;101329.97;5095589;28;20058;-83
2022/07/19 09:33:10;;;;;;;3.25;1.60;;;;;;;27.60;38.46;101312.06;5094048;28;20032;-81
2022/07/19 09:35:44;;;;;;;18.38;2.35;;;;;;;27.73;39.00;101329.44;5093985;28;20039;-82
2022/07/19 09:38:18;;;;;;;14.45;1.52;;;;;;;27.73;39.64;101329.44;5104481;28;20478;-85
2022/07/19 09:40:43;;;;;;;39.78;2.78;;;;;;;27.85;39.40;101335.97;5116468;28;20024;-88
2022/07/19 09:43:09;;;;;;;5.60;1.83;;;;;;;27.80;39.63;101321.94;5116209;28;20035;-90
2022/07/19 09:45:34;;;;;;;18.55;2.30;;;;;;;27.78;40.34;101332.38;5097277;28;20038;-88
2022/07/19 09:48:02;;;;;;;47.58;3.15;;;;;;;27.68;41.15;101332.00;5115912;28;20450;-83
2022/07/19 09:50:28;;;;;;;8.32;2.55;;;;;;;27.64;41.28;101327.16;5114436;28;20027;-77
2022/07/19 09:52:57;;;;;;;10.07;2.00;;;;;;;27.64;40.80;101332.69;5116364;28;20019;-88
2022/07/19 09:55:23;;;;;;;3.92;1.98;;;;;;;27.62;41.21;101332.03;5081523;28;20020;-87
2022/07/19 09:57:50;;;;;;;12.18;2.75;;;;;;;27.71;41.73;101320.50;5095450;28;20391;-85
2022/07/19 10:00:19;;;;;;;10.45;1.58;;;;;;;27.58;41.66;101315.88;5091095;28;20093;-83
2022/07/19 10:02:50;;;;;;;14.25;2.30;;;;;;;27.64;42.29;101322.47;5109360;28;20043;-77
2022/07/19 10:05:16;;;;;;;6.47;2.53;;;;;;;27.70;42.20;101323.50;5112094;28;20085;-77
2022/07/19 10:07:42;;;;;;;8.38;2.30;;;;;;;27.71;42.43;101322.41;5096354;28;20451;-77
2022/07/19 10:10:10;;;;;;;12.43;1.77;;;;;;;27.74;41.93;101314.53;5094824;28;20034;-77
2022/07/19 10:12:37;;;;;;;6.72;1.33;;;;;;;27.78;42.70;101332.38;5092180;28;20746;-78
2022/07/19 10:15:04;;;;;;;12.15;2.13;;;;;;;27.94;39.35;101320.81;5091161;28;20065;-77
2022/07/19 10:17:39;;;;;;;5.13;2.17;;;;;;;28.10;39.09;101314.78;5095302;28;20058;-76
2022/07/19 10:20:09;;;;;;;10.93;2.53;;;;;;;28.27;40.40;101325.31;5091533;28;20028;-76
2022/07/19 10:22:39;;;;;;;12.15;2.08;;;;;;;28.35;39.30;101317.56;5091518;28;20024;-78
2022/07/19 10:25:04;;;;;;;7.38;2.13;;;;;;;28.44;40.47;101315.41;5092891;28;20119;-78
2022/07/19 10:27:33;;;;;;;9.52;2.00;;;;;;;28.50;40.84;101317.28;5091772;28;20462;-77
2022/07/19 10:29:58;;;;;;;7.75;1.95;;;;;;;28.57;39.97;101309.72;5093273;28;20448;-79
2022/07/19 10:32:31;;;;;;;23.33;2.55;;;;;;;28.48;40.56;101302.78;5097274;28;20031;-95
2022/07/19 10:35:27;;;;;;;32.65;6.00;;;;;;;28.47;39.96;101315.78;5094753;28;20490;-93
2022/07/19 10:37:55;;;;;;;9.77;2.92;;;;;;;28.40;42.08;101303.09;5094953;28;20030;-86
2022/07/19 10:40:43;;;;;;;31.38;2.70;;;;;;;28.28;42.76;101305.72;5093570;28;20055;-81
2022/07/19 10:43:16;;;;;;;14.00;2.45;;;;;;;28.18;43.86;101302.59;5093302;28;20478;-82
2022/07/19 10:46:02;;;;;;;9.10;3.42;;;;;;;28.28;43.79;101315.94;5092960;28;20028;-81
2022/07/19 10:48:49;;;;;;;13.32;2.55;;;;;;;28.27;43.78;101303.16;5092164;28;20463;-82
2022/07/19 10:51:34;;;;;;;12.30;2.20;;;;;;;28.31;42.11;101304.44;5102412;28;20158;-84
2022/07/19 10:54:06;;;;;;;10.82;2.10;;;;;;;28.40;43.19;101290.09;5111045;28;20032;-83
2022/07/19 10:56:37;;;;;;;7.18;1.95;;;;;;;28.43;43.50;101294.31;5112841;28;20066;-79
2022/07/19 10:59:12;;;;;;;4.95;2.03;;;;;;;28.64;40.87;101296.69;5106449;28;20077;-83
2022/07/19 11:01:53;;;;;;;11.50;2.17;;;;;;;28.69;42.01;101280.25;5073255;28;20111;-81
2022/07/19 11:04:29;;;;;;;7.75;1.70;;;;;;;28.59;41.54;101291.81;5092431;28;20028;-83
2022/07/19 11:07:11;;;;;;;6.50;1.88;;;;;;;28.55;41.11;101289.75;5075840;28;20028;-88
2022/07/19 11:09:47;;;;;;;9.25;1.85;;;;;;;28.24;43.33;101271.28;5094337;28;20031;-80
2022/07/19 11:12:24;;;;;;;23.63;2.30;;;;;;;28.14;42.87;101294.97;5098696;28;20054;-83
2022/07/19 11:14:50;;;;;;;16.35;2.30;;;;;;;27.93;43.86;101277.63;5096292;28;20097;-78
2022/07/19 11:17:15;;;;;;;10.73;1.88;;;;;;;27.98;43.61;101286.09;5111375;28;20032;-78
2022/07/19 11:20:02;;;;;;;3.15;1.75;;;;;;;28.17;42.58;101286.22;5111068;28;20053;-77